Time;durP1;ratioP1;P1;durP2;ratioP2;P2;SDS_P1;SDS_P2;PMS_P1;PMS_P2;Temp;Humidity;BMP_temperature;BMP_pressure;BME280_temperature;BME280_humidity;BME280_pressure;Samples;Min_cycle;Max_cycle;Signal;HPM_P1;HPM_P2
2021/07/21 00:02:10;;;;;;;12.05;9.80;;;17.60;73.60;;;16.56;70.79;96359.66;4948840;28;20065;-67
2021/07/21 00:04:36;;;;;;;15.10;10.30;;;17.60;73.60;;;16.51;70.07;96361.09;4952773;28;20039;-67
2021/07/21 00:07:05;;;;;;;12.95;9.98;;;17.50;73.80;;;16.49;70.56;96357.84;4927018;29;20117;-67
2021/07/21 00:09:31;;;;;;;14.23;10.63;;;17.50;73.90;;;16.46;70.88;96360.94;4958842;28;20046;-67
2021/07/21 00:14:41;;;;;;;16.33;10.45;;;17.50;74.10;;;16.44;70.54;96352.38;4958647;28;20190;-67
2021/07/21 00:17:18;;;;;;;13.82;10.77;;;17.50;74.20;;;16.41;70.85;96355.50;4933559;29;20071;-67
2021/07/21 00:22:30;;;;;;;13.07;10.35;;;17.30;74.30;;;16.31;71.67;96349.88;4934094;29;20047;-66
2021/07/21 00:24:56;;;;;;;13.45;11.32;;;17.20;74.80;;;16.27;70.69;96351.31;4915355;29;20035;-68
2021/07/21 00:27:23;;;;;;;15.18;10.32;;;17.20;74.80;;;16.25;71.60;96358.69;4934724;28;20453;-66
2021/07/21 00:29:49;;;;;;;13.52;10.35;;;17.20;75.00;;;16.21;71.50;96355.66;4934050;29;20038;-67
2021/07/21 00:32:15;;;;;;;14.90;10.88;;;17.20;75.00;;;16.18;71.36;96360.59;4946339;28;20035;-67
2021/07/21 00:34:41;;;;;;;14.30;9.93;;;17.20;74.90;;;16.14;71.43;96360.22;4939912;29;20090;-67
2021/07/21 00:37:07;;;;;;;13.50;9.82;;;17.10;74.90;;;16.12;71.36;96369.44;4948973;28;20043;-68
2021/07/21 00:39:32;;;;;;;13.05;10.25;;;17.10;75.00;;;16.10;71.16;96363.53;4931350;28;20040;-67
2021/07/21 00:41:58;;;;;;;13.18;9.98;;;17.10;75.00;;;16.05;72.33;96363.34;4934645;28;20360;-68
2021/07/21 00:44:24;;;;;;;12.02;9.80;;;17.10;75.00;;;16.05;72.17;96358.03;4934796;28;20104;-67
2021/07/21 00:46:50;;;;;;;12.48;10.02;;;17.00;75.10;;;15.99;72.52;96362.38;4919229;29;20044;-67
2021/07/21 00:49:15;;;;;;;11.93;9.50;;;17.00;75.30;;;15.93;71.87;96364.06;4939189;28;20043;-67
2021/07/21 00:51:41;;;;;;;12.65;10.50;;;16.80;75.50;;;15.89;72.35;96362.88;4949158;29;20036;-67
2021/07/21 00:54:07;;;;;;;16.17;10.82;;;16.80;75.80;;;15.85;71.77;96360.88;4925619;29;20035;-67
2021/07/21 00:56:33;;;;;;;11.98;10.00;;;16.80;75.70;;;15.80;71.78;96361.50;4930564;29;20107;-68
2021/07/21 00:58:59;;;;;;;14.75;9.52;;;16.80;75.70;;;15.76;72.73;96362.16;4920600;29;20094;-68
2021/07/21 01:01:25;;;;;;;12.30;10.02;;;16.70;75.40;;;15.71;72.86;96354.03;4924023;28;20039;-68
2021/07/21 01:03:50;;;;;;;13.65;10.10;;;16.70;75.40;;;15.69;71.98;96356.91;4928289;29;20043;-68
2021/07/21 01:06:16;;;;;;;12.70;10.07;;;16.80;75.30;;;15.69;73.39;96356.91;4947526;28;20031;-67
2021/07/21 01:08:42;;;;;;;13.15;10.10;;;16.70;75.30;;;15.65;72.56;96355.72;4930125;29;20408;-67
2021/07/21 01:11:37;;;;;;;13.98;10.65;;;16.70;75.30;;;15.64;74.34;96359.41;4930018;29;20040;-66
2021/07/21 01:14:36;;;;;;;12.73;9.88;;;16.70;75.40;;;15.60;73.75;96352.88;4944403;28;20154;-67
2021/07/21 01:17:05;;;;;;;13.63;11.25;;;16.70;75.40;;;15.58;73.17;96349.59;4929387;29;20031;-67
2021/07/21 01:20:09;;;;;;;14.05;10.38;;;16.60;75.40;;;15.58;73.89;96352.25;4929815;28;20031;-66
2021/07/21 01:22:35;;;;;;;15.10;10.82;;;16.60;75.30;;;15.52;72.18;96361.06;4942101;28;20043;-67
2021/07/21 01:25:16;;;;;;;14.43;11.05;;;16.60;75.30;;;15.51;73.85;96354.13;4934981;28;20044;-67
2021/07/21 01:27:44;;;;;;;14.60;10.20;;;16.50;75.30;;;15.46;73.13;96356.63;4943049;29;20036;-66
2021/07/21 01:30:32;;;;;;;16.30;11.32;;;16.50;75.60;;;15.45;74.53;96349.69;4930975;29;20035;-66
2021/07/21 01:33:04;;;;;;;12.18;9.73;;;16.50;75.70;;;15.42;74.29;96358.06;4951237;28;20098;-67
2021/07/21 01:35:34;;;;;;;15.77;10.25;;;16.50;75.90;;;15.42;73.11;96355.41;4933345;28;20035;-66
2021/07/21 01:38:21;;;;;;;14.38;10.45;;;16.50;75.80;;;15.40;73.83;96352.16;4930883;29;20090;-67
2021/07/21 01:40:51;;;;;;;15.23;10.38;;;16.40;75.90;;;15.40;73.62;96352.16;4932523;29;20087;-67
2021/07/21 01:43:22;;;;;;;12.73;9.80;;;16.50;75.80;;;15.36;74.11;96350.94;4928901;28;20055;-68
2021/07/21 01:45:53;;;;;;;15.00;9.93;;;16.50;75.70;;;15.32;72.68;96351.38;4926510;29;20031;-66
2021/07/21 01:48:19;;;;;;;16.58;10.43;;;16.40;75.40;;;15.31;73.35;96347.09;4920268;29;20035;-66
2021/07/21 01:50:45;;;;;;;13.48;10.63;;;16.40;75.60;;;15.29;73.69;96357.09;4931244;29;20062;-67
2021/07/21 01:53:11;;;;;;;14.13;10.82;;;16.30;75.80;;;15.24;73.71;96359.56;4940505;28;20117;-67
2021/07/21 01:55:37;;;;;;;13.77;10.68;;;16.30;75.80;;;15.20;73.48;96352.28;4943454;28;20483;-67
2021/07/21 01:58:03;;;;;;;13.52;10.90;;;16.20;76.00;;;15.16;73.64;96351.88;4932061;29;20043;-67
2021/07/21 02:00:29;;;;;;;14.45;10.90;;;16.20;75.90;;;15.17;73.34;96353.50;4917162;29;20411;-67
2021/07/21 02:02:55;;;;;;;17.33;10.48;;;16.20;76.00;;;15.14;72.94;96353.91;4944526;29;20039;-67
2021/07/21 02:05:21;;;;;;;15.15;11.02;;;16.20;75.90;;;15.12;73.52;96349.84;4932708;28;20082;-66
2021/07/21 02:07:47;;;;;;;14.32;10.90;;;16.10;75.90;;;15.06;72.95;96351.50;4952371;28;20059;-67
2021/07/21 02:10:26;;;;;;;12.60;10.38;;;16.10;76.00;;;15.04;74.03;96348.25;4919567;28;20507;-67
2021/07/21 02:12:59;;;;;;;14.73;9.63;;;16.10;76.10;;;15.00;74.54;96347.06;4946518;28;20047;-66
2021/07/21 02:15:24;;;;;;;10.60;9.13;;;16.10;76.00;;;14.96;73.39;96341.38;4920956;28;20097;-66
2021/07/21 02:17:51;;;;;;;13.23;10.02;;;16.10;76.10;;;14.93;73.59;96347.06;4926655;28;20098;-66
2021/07/21 02:20:17;;;;;;;13.52;9.38;;;16.00;76.40;;;14.89;73.35;96339.75;4916711;29;20032;-66
2021/07/21 02:22:43;;;;;;;12.15;9.35;;;16.00;76.40;;;14.90;73.67;96351.97;4922921;29;20095;-67
2021/07/21 02:25:09;;;;;;;12.18;9.98;;;16.00;76.50;;;14.88;73.46;96354.03;4932043;29;20035;-66
2021/07/21 02:27:35;;;;;;;12.10;9.60;;;16.00;76.30;;;14.85;73.58;96344.66;4935127;28;20051;-66
2021/07/21 02:30:05;;;;;;;14.65;9.85;;;15.90;76.30;;;14.82;73.72;96338.97;4928221;29;20032;-66
2021/07/21 02:32:37;;;;;;;11.77;9.55;;;16.00;76.40;;;14.79;75.31;96344.69;4922369;29;20035;-66
2021/07/21 02:35:03;;;;;;;15.38;10.15;;;15.90;76.50;;;14.77;74.38;96341.44;4931548;29;20066;-66
2021/07/21 02:37:30;;;;;;;15.25;10.98;;;15.90;76.50;;;14.73;73.87;96346.34;4942204;28;20036;-66
2021/07/21 02:39:56;;;;;;;14.15;10.40;;;15.80;76.70;;;14.73;74.33;96350.84;4945829;28;20042;-65
2021/07/21 02:42:22;;;;;;;12.18;9.40;;;15.80;76.80;;;14.67;74.75;96353.25;4943608;29;20039;-66
2021/07/21 02:44:49;;;;;;;13.70;9.32;;;15.80;76.80;;;14.68;75.07;96360.19;4916596;29;20038;-66
2021/07/21 02:47:15;;;;;;;10.15;9.02;;;15.80;76.70;;;14.67;73.82;96358.56;4936625;29;20578;-66
2021/07/21 02:49:41;;;;;;;11.60;9.43;;;15.70;76.90;;;14.62;74.23;96355.72;4918972;29;20118;-66
2021/07/21 02:52:45;;;;;;;11.15;9.23;;;15.70;77.00;;;14.61;76.17;96343.53;4921470;29;20065;-66
2021/07/21 02:55:42;;;;;;;10.23;8.38;;;15.70;76.90;;;14.57;74.62;96355.53;4925769;28;20114;-66
2021/07/21 02:58:28;;;;;;;10.85;8.40;;;15.70;76.90;;;14.54;75.95;96355.97;4967226;28;20022;-66
2021/07/21 03:00:56;;;;;;;14.02;8.55;;;15.70;76.80;;;14.49;74.96;96355.78;4944464;29;20035;-66
2021/07/21 03:03:22;;;;;;;13.20;9.30;;;15.60;76.80;;;14.50;74.97;96354.75;4926843;28;20472;-66
2021/07/21 03:05:48;;;;;;;17.50;10.05;;;15.60;76.70;;;14.48;74.56;96358.59;4919135;29;20046;-66
2021/07/21 03:08:14;;;;;;;14.70;10.63;;;15.60;76.80;;;14.44;74.11;96358.22;4934600;29;20538;-66
2021/07/21 03:10:40;;;;;;;12.07;10.02;;;15.50;77.00;;;14.44;74.43;96358.22;4933001;29;20043;-66
2021/07/21 03:13:17;;;;;;;14.65;10.20;;;15.60;77.00;;;14.42;75.75;96357.56;4927712;29;20127;-66
2021/07/21 03:15:45;;;;;;;13.85;10.13;;;15.50;77.00;;;14.40;74.79;96362.25;4915564;29;20044;-66
2021/07/21 03:18:12;;;;;;;12.23;9.80;;;15.50;77.10;;;14.39;75.59;96363.28;4945756;28;20107;-65
2021/07/21 03:20:38;;;;;;;13.80;10.30;;;15.50;77.10;;;14.38;75.14;96356.38;4920386;29;20031;-66
2021/07/21 03:23:05;;;;;;;13.90;10.90;;;15.50;77.00;;;14.35;74.25;96367.38;4928407;29;20103;-68
2021/07/21 03:25:31;;;;;;;14.60;11.02;;;15.50;77.10;;;14.33;75.47;96364.13;4933454;28;20047;-65
2021/07/21 03:27:56;;;;;;;15.27;10.43;;;15.50;77.10;;;14.33;75.27;96358.81;4933207;29;20127;-66
2021/07/21 03:30:23;;;;;;;15.05;11.55;;;15.50;77.00;;;14.30;75.70;96362.69;4927878;28;20114;-65
2021/07/21 03:32:49;;;;;;;16.40;10.82;;;15.50;76.90;;;14.28;75.02;96369.22;4931527;29;20254;-66
2021/07/21 03:35:15;;;;;;;14.95;11.30;;;15.40;77.30;;;14.25;74.73;96374.88;4919058;29;20364;-65
2021/07/21 03:37:41;;;;;;;15.75;11.13;;;15.40;77.40;;;14.25;75.12;96372.25;4944236;28;20039;-65
2021/07/21 03:40:10;;;;;;;14.15;10.77;;;15.40;77.30;;;14.21;75.60;96378.97;4934944;28;20027;-64
2021/07/21 03:42:36;;;;;;;13.35;10.57;;;15.40;77.20;;;14.21;76.09;96377.13;4940645;29;20039;-65
2021/07/21 03:45:09;;;;;;;13.30;10.75;;;15.40;77.20;;;14.22;75.67;96378.75;4920260;29;20055;-66
2021/07/21 03:47:35;;;;;;;12.75;10.45;;;15.40;77.20;;;14.20;74.85;96375.50;4942688;28;20082;-65
2021/07/21 03:50:03;;;;;;;14.57;11.35;;;15.40;77.30;;;14.21;75.07;96378.97;4921537;29;20031;-65
2021/07/21 03:52:29;;;;;;;12.82;10.48;;;15.40;77.50;;;14.20;75.47;96383.44;4932361;28;20047;-65
2021/07/21 03:54:55;;;;;;;14.38;11.10;;;15.40;77.50;;;14.20;74.82;96387.94;4927804;29;20027;-65
2021/07/21 03:57:21;;;;;;;18.52;11.82;;;15.40;77.50;;;14.20;76.59;96387.94;4949403;28;20431;-65
2021/07/21 03:59:47;;;;;;;14.30;11.80;;;15.40;77.60;;;14.22;75.63;96385.88;4934063;29;20031;-66
2021/07/21 04:02:13;;;;;;;16.10;11.52;;;15.40;77.70;;;14.23;76.16;96382.22;4919931;29;20062;-67
2021/07/21 04:04:40;;;;;;;14.82;11.60;;;15.40;77.90;;;14.24;75.68;96386.50;4933592;29;20039;-69
2021/07/21 04:07:08;;;;;;;15.07;11.75;;;15.50;77.80;;;14.24;76.19;96383.84;4928640;29;20090;-68
2021/07/21 04:09:34;;;;;;;17.33;11.55;;;15.50;77.70;;;14.26;76.33;96392.44;4931238;28;20077;-74
2021/07/21 04:12:01;;;;;;;14.43;11.10;;;15.50;77.70;;;14.26;76.39;96393.25;4927603;29;20035;-73
2021/07/21 04:14:27;;;;;;;13.75;11.15;;;15.50;77.70;;;14.26;76.98;96392.44;4939805;28;20038;-68
2021/07/21 04:16:53;;;;;;;14.40;10.88;;;15.50;77.70;;;14.26;76.42;96403.00;4929164;29;20040;-69
2021/07/21 04:19:18;;;;;;;13.95;11.60;;;15.50;77.60;;;14.26;76.55;96397.72;4937144;28;20126;-71
2021/07/21 04:21:49;;;;;;;14.20;10.95;;;15.50;77.60;;;14.28;76.56;96416.84;4928297;28;20035;-71
2021/07/21 04:24:15;;;;;;;13.73;10.38;;;15.50;77.60;;;14.25;76.42;96412.75;4950092;28;20035;-69
2021/07/21 04:26:41;;;;;;;15.73;10.65;;;15.50;77.60;;;14.25;76.44;96411.94;4932945;28;20504;-70
2021/07/21 04:29:14;;;;;;;15.30;10.20;;;15.50;77.40;;;14.26;76.18;96413.59;4949315;28;20671;-71
2021/07/21 04:31:40;;;;;;;13.60;9.55;;;15.60;77.30;;;14.29;75.44;96415.81;4934068;28;20031;-70
2021/07/21 04:34:06;;;;;;;16.75;10.85;;;15.60;77.40;;;14.30;76.64;96409.50;4937212;29;20027;-71
2021/07/21 04:36:34;;;;;;;12.52;9.43;;;15.60;77.40;;;14.35;75.71;96413.16;4931217;28;20082;-70
2021/07/21 04:39:00;;;;;;;16.15;10.43;;;15.60;77.30;;;14.36;76.90;96411.34;4936042;28;20114;-71
2021/07/21 04:41:26;;;;;;;15.52;10.63;;;15.60;77.20;;;14.39;76.61;96413.56;4954192;28;20474;-70
2021/07/21 04:43:52;;;;;;;12.65;9.88;;;15.60;77.30;;;14.38;75.70;96411.94;4934332;29;20030;-70
2021/07/21 04:46:18;;;;;;;15.32;10.27;;;15.60;77.80;;;14.38;76.36;96414.59;4940320;28;20032;-71
2021/07/21 04:48:44;;;;;;;13.75;10.23;;;15.60;77.80;;;14.41;76.23;96414.19;4915780;29;20660;-70
2021/07/21 04:51:10;;;;;;;13.00;9.50;;;15.60;77.70;;;14.42;76.27;96410.50;4929743;29;20039;-70
2021/07/21 04:53:37;;;;;;;14.93;10.38;;;15.70;77.50;;;14.43;76.49;96408.69;4936291;28;20039;-70
2021/07/21 04:56:03;;;;;;;17.45;10.60;;;15.80;77.50;;;14.47;77.12;96409.91;4938075;28;20031;-71
2021/07/21 04:58:28;;;;;;;12.63;10.13;;;15.80;77.80;;;14.50;77.10;96413.00;4946666;29;20039;-70
2021/07/21 05:00:56;;;;;;;11.65;9.55;;;15.90;77.50;;;14.55;76.33;96410.53;4945085;28;20054;-70
2021/07/21 05:03:22;;;;;;;13.68;10.15;;;15.90;77.60;;;14.56;75.65;96414.81;4953233;28;20027;-70
2021/07/21 05:05:48;;;;;;;11.82;10.10;;;15.80;77.70;;;14.59;76.74;96416.22;4935589;28;20027;-71
2021/07/21 05:08:14;;;;;;;17.73;10.10;;;15.90;77.90;;;14.64;76.47;96419.88;4937533;29;20574;-70
2021/07/21 05:10:40;;;;;;;19.23;13.68;;;16.00;77.80;;;14.69;76.50;96428.00;4937000;28;20106;-70
2021/07/21 05:13:06;;;;;;;18.23;12.10;;;16.10;77.90;;;14.76;77.76;96427.22;4946694;28;20067;-68
2021/07/21 05:15:32;;;;;;;14.48;11.00;;;16.20;77.70;;;14.79;77.39;96424.94;4951379;28;20043;-69
2021/07/21 05:17:58;;;;;;;13.73;10.40;;;16.20;77.80;;;14.82;76.57;96423.72;4933989;29;20067;-69
2021/07/21 05:20:24;;;;;;;16.08;10.95;;;16.30;77.50;;;14.90;76.31;96428.78;4933854;29;20058;-71
2021/07/21 05:22:50;;;;;;;17.13;11.90;;;16.30;77.50;;;14.97;77.30;96421.66;4935867;29;20059;-65
2021/07/21 05:25:16;;;;;;;13.57;10.43;;;16.40;77.60;;;15.05;77.11;96428.53;4926071;29;20072;-67
2021/07/21 05:27:42;;;;;;;15.82;11.10;;;16.50;77.40;;;15.12;77.14;96431.97;4938264;28;20043;-66
2021/07/21 05:30:08;;;;;;;14.20;10.95;;;16.60;77.50;;;15.21;76.67;96436.84;4938303;29;20334;-66
2021/07/21 05:32:34;;;;;;;14.35;11.43;;;16.70;77.40;;;15.31;77.58;96434.56;4933898;29;20035;-66
2021/07/21 05:35:00;;;;;;;15.93;10.55;;;16.80;76.90;;;15.39;76.67;96436.19;4940679;28;20134;-65
2021/07/21 05:37:26;;;;;;;12.00;10.63;;;16.80;77.00;;;15.48;76.86;96439.41;4934596;28;20052;-69
2021/07/21 05:39:51;;;;;;;13.40;10.07;;;17.10;76.70;;;15.61;77.26;96439.34;4927478;29;20035;-65
2021/07/21 05:42:17;;;;;;;13.02;10.48;;;17.20;76.70;;;15.73;77.07;96437.66;4948160;29;20515;-68
2021/07/21 05:44:43;;;;;;;23.35;16.48;;;17.40;76.40;;;15.86;76.02;96436.78;4929629;29;20574;-66
2021/07/21 05:47:09;;;;;;;14.05;11.23;;;17.50;75.90;;;15.99;76.00;96441.19;4940439;28;20137;-66
2021/07/21 05:49:34;;;;;;;13.88;10.15;;;17.70;75.60;;;16.13;76.63;96443.53;4951472;28;20122;-68
2021/07/21 05:52:01;;;;;;;15.52;10.70;;;17.90;75.00;;;16.26;75.63;96442.59;4935680;29;20042;-69
2021/07/21 05:54:28;;;;;;;14.75;10.63;;;18.00;75.10;;;16.41;76.59;96437.78;4936516;29;20603;-67
2021/07/21 05:56:53;;;;;;;18.98;11.10;;;18.10;74.60;;;16.52;76.31;96442.41;4937187;29;20027;-68
2021/07/21 05:59:19;;;;;;;14.63;10.70;;;18.30;74.70;;;16.67;76.04;96449.25;4947004;28;20063;-68
2021/07/21 06:01:45;;;;;;;15.50;11.00;;;18.50;74.10;;;16.80;75.85;96454.44;4936062;29;20118;-68
2021/07/21 06:04:11;;;;;;;15.88;10.18;;;18.60;72.90;;;16.93;74.69;96449.00;4934475;28;20180;-67
2021/07/21 06:06:37;;;;;;;15.75;10.60;;;18.80;71.90;;;17.09;74.37;96453.72;4931333;29;20127;-68
2021/07/21 06:09:04;;;;;;;14.82;10.63;;;19.00;71.60;;;17.25;74.23;96455.00;4949912;28;20039;-68
2021/07/21 06:11:29;;;;;;;15.20;10.85;;;19.10;70.90;;;17.38;73.39;96464.66;4954273;28;20526;-68
2021/07/21 06:13:59;;;;;;;15.98;10.45;;;19.30;70.30;;;17.52;73.12;96465.31;4951512;28;20059;-66
2021/07/21 06:16:25;;;;;;;16.88;11.13;;;19.50;69.80;;;17.67;73.53;96468.41;4950863;28;20075;-69
2021/07/21 06:18:51;;;;;;;15.85;10.48;;;19.70;69.10;;;17.83;72.28;96474.97;4951123;28;20107;-66
2021/07/21 06:21:16;;;;;;;18.17;11.25;;;20.00;68.40;;;17.96;72.50;96474.81;4949995;28;20038;-68
2021/07/21 06:23:42;;;;;;;12.80;10.35;;;20.10;67.70;;;18.11;72.25;96477.88;4962222;28;20588;-68
2021/07/21 06:26:08;;;;;;;14.38;10.15;;;20.40;66.90;;;18.26;71.03;96480.09;4955629;28;20032;-68
2021/07/21 06:28:34;;;;;;;16.73;10.95;;;20.50;66.50;;;18.39;70.84;96477.25;4946331;28;20071;-68
2021/07/21 06:31:00;;;;;;;16.73;11.07;;;20.70;65.10;;;18.48;70.57;96470.53;4933889;29;20051;-68
2021/07/21 06:33:26;;;;;;;15.85;9.93;;;20.80;65.20;;;18.58;71.13;96472.66;4950464;28;20047;-68
2021/07/21 06:35:52;;;;;;;14.68;10.05;;;20.90;65.00;;;18.72;71.30;96482.06;4951643;28;20563;-68
2021/07/21 06:38:18;;;;;;;17.27;10.90;;;21.00;64.90;;;18.84;70.96;96482.88;4946085;28;20566;-68
2021/07/21 06:40:43;;;;;;;18.08;10.20;;;21.10;64.40;;;19.00;70.51;96488.56;4950832;28;20061;-66
2021/07/21 06:43:09;;;;;;;13.48;10.00;;;21.50;63.60;;;19.14;68.99;96482.75;4944558;28;20095;-68
2021/07/21 06:45:35;;;;;;;13.85;9.82;;;21.60;63.10;;;19.29;69.23;96474.28;4947309;28;20502;-69
2021/07/21 06:48:01;;;;;;;13.43;10.45;;;21.80;62.30;;;19.46;69.67;96485.84;4950341;28;20036;-67
2021/07/21 06:50:27;;;;;;;15.43;10.50;;;22.00;61.70;;;19.63;68.74;96487.81;4950631;28;20042;-66
2021/07/21 06:52:53;;;;;;;18.13;9.98;;;22.10;61.10;;;19.75;67.94;96484.06;4945688;28;20031;-67
2021/07/21 06:55:19;;;;;;;13.43;9.43;;;22.30;60.20;;;19.92;66.73;96485.97;4942448;28;20071;-67
2021/07/21 06:57:45;;;;;;;13.52;10.10;;;22.50;59.80;;;20.07;67.91;96487.06;4951155;28;20043;-68
2021/07/21 07:00:11;;;;;;;14.85;9.77;;;22.60;59.90;;;20.21;67.16;96482.25;4952138;28;20526;-67
2021/07/21 07:02:36;;;;;;;15.65;11.13;;;22.80;59.80;;;20.35;65.95;96488.06;4949862;28;20043;-66
2021/07/21 07:05:03;;;;;;;12.88;9.70;;;22.80;59.00;;;20.48;66.24;96493.16;4935190;29;20047;-67
2021/07/21 07:07:29;;;;;;;12.50;9.65;;;22.90;58.40;;;20.62;65.30;96494.47;4942242;28;20688;-67
2021/07/21 07:09:55;;;;;;;13.70;9.25;;;23.10;58.90;;;20.74;65.95;96491.72;4933053;28;20039;-67
2021/07/21 07:12:20;;;;;;;15.15;9.85;;;23.30;58.80;;;20.87;64.98;96495.94;4934634;29;20024;-70
2021/07/21 07:14:46;;;;;;;14.02;9.48;;;23.40;57.40;;;20.99;64.67;96496.63;4944871;28;20058;-67
2021/07/21 07:17:12;;;;;;;15.82;9.18;;;23.60;57.10;;;21.14;64.83;96502.22;4966036;28;20071;-68
2021/07/21 07:19:38;;;;;;;15.80;9.50;;;23.80;56.60;;;21.30;64.40;96501.41;4952513;28;20126;-68
2021/07/21 07:22:04;;;;;;;16.67;9.25;;;24.00;56.70;;;21.43;63.68;96504.78;4937661;28;20063;-68
2021/07/21 07:24:29;;;;;;;16.02;10.43;;;24.10;56.00;;;21.60;62.71;96500.19;4976868;28;20039;-67
2021/07/21 07:26:57;;;;;;;17.30;11.38;;;24.20;54.40;;;21.78;62.53;96502.56;4957325;28;20041;-67
2021/07/21 07:29:23;;;;;;;14.50;9.30;;;24.50;53.90;;;21.90;61.09;96495.19;4958608;28;20098;-68
2021/07/21 07:31:48;;;;;;;22.65;9.10;;;24.50;50.90;;;21.93;60.69;96494.69;4958159;28;20039;-67
2021/07/21 07:34:14;;;;;;;12.68;8.48;;;24.50;50.40;;;22.14;59.51;96495.75;4939831;28;20035;-67
2021/07/21 07:36:40;;;;;;;14.23;8.95;;;24.70;50.20;;;22.30;59.70;96504.75;4961468;28;20628;-66
2021/07/21 07:39:07;;;;;;;12.85;8.57;;;24.90;51.00;;;22.45;59.21;96501.41;4943293;29;20052;-66
2021/07/21 07:41:34;;;;;;;12.52;8.32;;;25.10;50.00;;;22.62;59.10;96502.91;4918349;28;20035;-66
2021/07/21 07:44:00;;;;;;;12.57;8.30;;;25.30;49.40;;;22.74;58.79;96499.25;4957886;28;20085;-68
2021/07/21 07:46:26;;;;;;;15.10;8.73;;;25.50;49.60;;;22.90;57.63;96498.34;4918470;29;20448;-67
2021/07/21 07:48:53;;;;;;;15.38;8.40;;;25.50;48.10;;;23.00;57.28;96494.91;4946399;28;20035;-64
2021/07/21 07:51:19;;;;;;;13.93;8.65;;;25.70;48.30;;;23.20;57.25;96500.41;4938737;28;20712;-68
2021/07/21 07:53:45;;;;;;;13.65;8.25;;;25.90;48.40;;;23.31;56.44;96499.41;4969785;28;20053;-68
2021/07/21 07:56:11;;;;;;;10.70;8.07;;;26.10;46.90;;;23.47;55.33;96492.25;4960724;28;20066;-66
2021/07/21 07:58:37;;;;;;;12.80;8.20;;;26.10;44.80;;;23.65;55.00;96493.69;4946690;28;20042;-67
2021/07/21 08:01:03;;;;;;;14.82;7.35;;;26.40;45.40;;;23.82;54.52;96483.56;4952309;28;20544;-68
2021/07/21 08:03:30;;;;;;;11.85;8.25;;;26.50;42.70;;;23.98;53.04;96481.72;4935879;28;20133;-65
2021/07/21 08:05:57;;;;;;;11.40;8.30;;;26.60;43.00;;;24.11;52.70;96473.97;4937123;29;20149;-68
2021/07/21 08:08:23;;;;;;;14.55;7.95;;;26.80;41.60;;;24.28;51.66;96487.22;4920627;28;20490;-67
2021/07/21 08:10:49;;;;;;;10.15;7.65;;;27.00;40.80;;;24.45;51.02;96481.59;4952839;28;20168;-67
2021/07/21 08:13:15;;;;;;;10.05;7.53;;;27.20;41.60;;;24.61;50.60;96490.47;4935930;28;20027;-67
2021/07/21 08:15:40;;;;;;;15.45;8.10;;;27.30;41.00;;;24.73;49.57;96483.75;4947060;28;20549;-67
2021/07/21 08:18:06;;;;;;;10.77;7.57;;;27.40;38.00;;;24.84;48.95;96489.13;4948428;28;20473;-70
2021/07/21 08:20:32;;;;;;;11.32;7.03;;;27.30;38.70;;;24.97;48.80;96478.63;4953677;28;20515;-67
2021/07/21 08:22:58;;;;;;;11.73;7.43;;;27.70;39.30;;;25.12;48.87;96485.91;4928079;29;20455;-70
2021/07/21 08:25:24;;;;;;;11.70;7.05;;;27.80;39.70;;;25.26;48.27;96480.75;4941084;28;20058;-67
2021/07/21 08:27:51;;;;;;;11.30;7.47;;;28.00;39.50;;;25.40;48.20;96484.50;4960775;28;20038;-67
2021/07/21 08:30:17;;;;;;;8.93;6.95;;;28.20;38.20;;;25.54;47.26;96485.53;4927062;28;20129;-71
2021/07/21 08:32:47;;;;;;;10.10;7.03;;;28.30;37.30;;;25.70;45.78;96480.13;4946998;28;20046;-67
2021/07/21 08:35:14;;;;;;;9.77;6.97;;;28.50;37.50;;;25.86;46.44;96484.38;4950132;28;20126;-67
2021/07/21 08:37:40;;;;;;;10.70;7.20;;;28.60;37.30;;;26.01;46.32;96483.47;4935036;28;20102;-68
2021/07/21 08:40:10;;;;;;;10.18;7.32;;;28.80;37.50;;;26.15;42.83;96482.59;4931456;28;20039;-67
2021/07/21 08:42:35;;;;;;;;;;;28.90;36.30;;;26.29;42.85;96477.38;4918022;29;20043;-68
2021/07/21 08:45:03;;;;;;;12.73;7.47;;;29.20;36.40;;;26.44;46.00;96488.09;4936710;28;19926;-66
2021/07/21 08:47:29;;;;;;;11.45;7.10;;;29.30;36.80;;;26.62;45.99;96485.81;4932556;28;20058;-67
2021/07/21 08:49:55;;;;;;;11.65;7.45;;;29.60;37.10;;;26.80;45.41;96487.84;4965559;28;20093;-66
2021/07/21 08:52:21;;;;;;;8.60;6.53;;;29.80;36.00;;;26.94;44.72;96488.00;4952329;28;20135;-70
2021/07/21 08:54:48;;;;;;;11.95;6.75;;;29.80;35.90;;;27.15;44.83;96489.41;4953973;28;20042;-68
2021/07/21 08:57:15;;;;;;;18.42;13.55;;;30.10;37.00;;;27.36;44.70;96485.44;4940335;28;20035;-67
2021/07/21 08:59:44;;;;;;;11.18;7.63;;;30.30;35.70;;;27.52;41.26;96488.78;4952443;28;20042;-70
2021/07/21 09:02:11;;;;;;;11.38;6.03;;;30.40;34.00;;;27.76;42.43;96486.09;4947948;28;20031;-68
2021/07/21 09:04:37;;;;;;;10.98;6.28;;;30.70;32.80;;;27.95;41.92;96481.53;4933861;28;20427;-68
2021/07/21 09:07:04;;;;;;;9.82;6.65;;;30.90;33.60;;;28.12;41.59;96480.25;4956300;28;20399;-68
2021/07/21 09:09:30;;;;;;;9.68;7.15;;;31.00;32.90;;;28.22;41.72;96482.78;4951252;28;20035;-69
2021/07/21 09:11:57;;;;;;;10.40;6.47;;;30.80;33.80;;;28.32;41.82;96488.09;4932702;29;20028;-67
2021/07/21 09:14:24;;;;;;;8.85;6.65;;;31.10;33.20;;;28.41;41.56;96489.03;4949100;28;20023;-69
2021/07/21 09:17:12;;;;;;;11.93;6.93;;;31.10;33.60;;;28.57;38.57;96486.91;4922722;29;20035;-68
2021/07/21 09:19:46;;;;;;;12.60;6.95;;;31.40;33.70;;;28.74;38.78;96491.78;4933261;28;20472;-69
2021/07/21 09:22:25;;;;;;;10.27;7.03;;;31.70;33.10;;;28.93;38.96;96489.88;4923047;28;20046;-68
2021/07/21 09:25:18;;;;;;;10.82;6.90;;;31.80;33.30;;;29.08;37.60;96486.91;4952905;28;20038;-68
2021/07/21 09:27:46;;;;;;;12.20;6.97;;;32.10;31.90;;;29.19;39.34;96485.59;4951171;28;20046;-68
2021/07/21 09:30:15;;;;;;;12.90;6.73;;;32.10;32.20;;;29.36;39.05;96481.53;4961771;28;20046;-68
2021/07/21 09:32:59;;;;;;;8.63;6.78;;;32.40;32.60;;;29.54;37.15;96481.47;4930259;28;20261;-68
2021/07/21 09:35:28;;;;;;;10.85;6.65;;;32.40;31.50;;;29.70;37.67;96486.59;4948009;28;20066;-68
2021/07/21 09:37:58;;;;;;;8.68;6.57;;;32.70;31.20;;;29.88;37.48;96483.78;4924842;29;20035;-68
2021/07/21 09:40:24;;;;;;;12.05;7.00;;;33.00;31.40;;;30.00;38.39;96485.16;4939015;28;20027;-69
2021/07/21 09:42:50;;;;;;;11.77;7.38;;;33.00;30.20;;;30.17;38.50;96485.38;4955674;28;20045;-69
2021/07/21 09:45:18;;;;;;;10.38;7.93;;;33.30;31.70;;;30.37;38.00;96484.91;4953762;28;20038;-69
2021/07/21 09:47:56;;;;;;;11.70;8.15;;;33.50;30.80;;;30.41;35.34;96485.91;4936272;28;20186;-68
2021/07/21 09:50:28;;;;;;;10.35;7.32;;;32.80;29.40;;;30.39;35.02;96474.56;4962440;28;20085;-68
2021/07/21 09:53:05;;;;;;;14.23;7.55;;;32.90;29.30;;;30.41;35.66;96483.19;4940275;28;20532;-68
2021/07/21 09:55:35;;;;;;;9.02;7.13;;;33.00;30.60;;;30.51;35.51;96479.44;4939435;28;20035;-69
2021/07/21 09:58:04;;;;;;;10.02;6.93;;;33.40;30.00;;;30.67;35.82;96474.47;4937040;28;20031;-67
2021/07/21 10:00:37;;;;;;;10.95;7.00;;;33.90;30.60;;;30.89;37.13;96484.53;4953696;28;20046;-70
2021/07/21 10:03:11;;;;;;;11.15;7.53;;;34.20;30.00;;;31.09;35.25;96478.59;4955289;28;20034;-71
2021/07/21 10:06:10;;;;;;;13.23;7.10;;;34.70;29.60;;;31.32;34.72;96476.66;4952786;28;20035;-70
2021/07/21 10:08:47;;;;;;;11.30;6.68;;;34.90;28.50;;;31.50;33.70;96475.63;4959963;28;20372;-70
2021/07/21 10:11:35;;;;;;;10.52;8.32;;;35.20;27.40;;;31.87;33.13;96473.53;4921515;28;20817;-67
2021/07/21 10:14:03;;;;;;;11.93;6.97;;;35.50;26.90;;;32.27;33.39;96475.06;4929018;28;20027;-66
2021/07/21 10:16:45;;;;;;;8.40;6.65;;;36.10;26.70;;;32.70;32.55;96471.53;4978238;28;20631;-66
2021/07/21 10:19:25;;;;;;;10.68;6.90;;;36.60;26.90;;;33.13;32.36;96473.44;4957993;28;20121;-72
2021/07/21 10:22:00;;;;;;;10.98;6.95;;;36.70;26.80;;;33.39;33.24;96466.00;4954264;28;20035;-73